Date,TemperatureHighF,TemperatureAvgF,TemperatureLowF,DewpointHighF,DewpointAvgF,DewpointLowF,HumidityHigh,HumidityAvg,HumidityLow,PressureMaxIn,PressureMinIn,WindSpeedMaxMPH,WindSpeedAvgMPH,GustSpeedMaxMPH,PrecipitationSumIn
2013-1-1,8,3,0,3,0,-3,89,86,76,0.00,40.00,0,-999,0,0.00
2013-1-2,10,3,-2,5,-1,-5,90,81,63,0.00,40.00,0,-999,0,0.00
2013-1-3,10,6,2,-1,-3,-5,74,64,51,0.00,40.00,0,-999,0,0.00
2013-1-4,20,15,11,5,2,0,69,58,49,0.00,40.00,0,-999,0,0.00
2013-1-5,21,12,5,5,2,-2,76,65,50,0.00,40.00,0,-999,0,0.00
2013-1-6,29,23,18,12,4,-3,54,43,33,0.00,40.00,0,-999,0,0.00
2013-1-7,20,17,13,16,9,2,95,72,48,0.00,40.00,0,-999,0,0.00
2013-1-8,23,20,17,21,18,15,96,90,81,0.00,40.00,0,-999,0,0.00
2013-1-9,33,26,22,25,21,15,97,82,57,0.00,40.00,0,-999,0,0.00
2013-1-10,28,22,11,22,18,6,96,82,58,0.00,40.00,0,-999,0,0.00
2013-1-11,11,4,-6,10,0,-11,95,84,68,0.00,40.00,0,-999,0,0.00
2013-1-12,1,-4,-8,-5,-9,-12,85,81,70,0.00,40.00,0,-999,0,0.00
2013-1-13,0,-6,-10,-7,-11,-14,84,79,70,0.00,40.00,0,-999,0,0.00
2013-1-14,-2,-8,-13,-7,-12,-17,84,80,73,0.00,40.00,0,-999,0,0.00
2013-1-15,4,-2,-8,1,-6,-12,88,83,77,0.00,40.00,0,-999,0,0.00
2013-1-16,10,5,1,6,2,-2,90,87,78,0.00,40.00,0,-999,0,0.00
2013-1-17,32,18,8,17,9,5,90,71,45,0.00,40.00,0,-999,0,0.00
2013-1-18,28,20,14,10,8,5,71,58,42,0.00,40.00,0,-999,0,0.00
2013-1-19,25,18,12,9,6,3,70,60,47,0.00,40.00,0,-999,0,0.00
2013-1-20,24,18,13,9,7,4,72,60,47,0.00,40.00,0,-999,0,0.00
2013-1-21,28,21,16,11,8,6,69,58,45,0.00,40.00,0,-999,0,0.00
2013-1-22,33,23,17,8,5,-1,63,45,30,0.00,40.00,0,-999,0,0.00
2013-1-23,35,29,24,8,3,-3,43,32,25,0.00,40.00,0,-999,0,0.00
2013-1-24,32,27,24,27,20,6,98,78,36,0.00,40.00,0,-999,0,0.00
2013-1-25,30,27,24,25,23,20,91,84,74,0.00,40.00,0,-999,0,0.00
2013-1-26,32,28,26,30,27,23,98,96,83,0.00,40.00,0,-999,0,0.00
2013-1-27,28,23,14,27,20,9,97,89,79,0.00,40.00,0,-999,0,0.00
2013-1-28,17,10,6,10,6,0,95,83,71,0.00,40.00,0,-999,0,0.00
2013-1-29,16,9,6,9,5,3,91,84,68,0.00,40.00,0,-999,0,0.00
2013-1-30,22,17,8,20,14,6,92,89,81,0.00,40.00,0,-999,0,0.00
2013-1-31,27,22,19,20,19,15,97,88,73,0.00,40.00,0,-999,0,0.00
2013-2-1,29,23,19,22,19,16,96,87,72,0.00,40.00,0,-999,0,0.00
2013-2-2,27,20,16,18,16,12,93,83,67,0.00,40.00,0,-999,0,0.00
2013-2-3,27,18,13,18,14,10,96,82,61,0.00,40.00,0,-999,0,0.00
2013-2-4,28,21,15,19,16,11,94,80,65,0.00,40.00,0,-999,0,0.00
2013-2-5,34,26,21,21,16,10,95,68,45,0.00,40.00,0,-999,0,0.00
2013-2-6,28,22,12,17,14,7,81,71,52,0.00,40.00,0,-999,0,0.00
2013-2-7,27,18,9,8,5,0,87,59,35,0.00,40.00,0,-999,0,0.00
2013-2-8,30,22,17,20,10,2,95,60,45,0.00,40.00,0,-999,0,0.00
2013-2-9,28,20,15,16,11,8,89,68,46,0.00,40.00,0,-999,0,0.00
2013-2-10,18,13,7,13,1,-12,93,60,33,0.00,40.00,0,-999,0,0.00
2013-2-11,14,5,-1,0,-5,-13,77,62,42,0.00,40.00,0,-999,0,0.00
2013-2-12,19,10,2,12,7,-3,92,85,74,0.00,40.00,0,-999,0,0.00
2013-2-13,25,19,14,19,16,12,94,89,75,0.00,40.00,0,-999,0,0.00
2013-2-14,24,18,15,18,12,9,96,78,59,0.00,40.00,0,-999,0,0.00
2013-2-15,29,20,16,16,12,10,86,72,48,0.00,40.00,0,-999,0,0.00
2013-2-16,31,22,17,20,17,14,94,79,62,0.00,40.00,0,-999,0,0.00
2013-2-17,26,18,13,20,12,7,93,78,63,0.00,40.00,0,-999,0,0.00
2013-2-18,22,14,10,10,8,4,91,76,54,0.00,40.00,0,-999,0,0.00
2013-2-19,29,19,11,16,7,0,79,59,38,0.00,40.00,0,-999,0,0.00
2013-2-20,31,21,15,18,12,6,95,67,47,0.00,40.00,0,-999,0,0.00
2013-2-21,23,15,10,17,10,2,95,79,60,0.00,40.00,0,-999,0,0.00
2013-2-22,20,13,9,13,9,5,94,83,65,0.00,40.00,0,-999,0,0.00
2013-2-23,24,15,9,19,12,5,93,89,76,0.00,40.00,0,-999,0,0.00
2013-2-24,24,12,6,13,5,-1,83,74,62,0.00,40.00,0,-999,0,0.00
2013-2-25,17,10,3,12,6,-1,94,81,68,0.00,40.00,0,-999,0,0.00
2013-2-26,21,11,6,11,6,1,94,78,61,0.00,40.00,0,-999,0,0.00
2013-2-27,21,11,4,9,5,1,90,77,58,0.00,40.00,0,-999,0,0.00
2013-2-28,22,15,8,17,11,5,94,86,76,0.00,40.00,0,-999,0,0.00
2013-3-1,34,24,16,26,21,15,96,89,73,0.00,40.00,0,-999,0,0.00
2013-3-2,38,30,24,28,24,18,97,80,58,0.00,40.00,0,-999,0,0.00
2013-3-3,32,26,13,27,23,8,98,87,74,0.00,40.00,0,-999,0,0.00
2013-3-4,21,11,6,9,4,-4,93,72,50,0.00,40.00,0,-999,0,0.00
2013-3-5,28,17,4,12,3,-4,77,55,35,0.00,40.00,0,-999,0,0.00
2013-3-6,32,25,19,26,16,7,96,71,50,0.00,40.00,0,-999,0,0.00
2013-3-7,31,22,13,22,14,6,91,73,35,0.00,40.00,0,-999,0,0.00
2013-3-8,34,26,21,27,22,16,93,84,72,0.00,40.00,0,-999,0,0.00
2013-3-9,35,24,18,17,12,5,83,62,30,0.00,40.00,0,-999,0,0.00
2013-3-10,35,22,14,15,10,6,71,59,39,0.00,40.00,0,-999,0,0.00
2013-3-11,28,24,20,23,14,7,92,67,49,0.00,40.00,0,-999,0,0.00
2013-3-12,34,25,16,25,15,3,85,65,56,0.00,40.00,0,-999,0,0.00
2013-3-13,44,35,28,28,25,22,88,69,48,0.00,40.00,0,-999,0,0.00
2013-3-14,48,38,31,25,22,15,72,54,34,0.00,40.00,0,-999,0,0.00
2013-3-15,43,39,33,24,20,15,65,47,37,0.00,40.00,0,-999,0,0.00
2013-3-16,37,32,28,23,19,14,77,59,44,0.00,40.00,0,-999,0,0.00
2013-3-17,29,18,12,25,12,3,97,77,58,0.00,40.00,0,-999,0,0.00
2013-3-18,20,15,10,17,9,3,92,77,60,0.00,40.00,0,-999,0,0.00
2013-3-19,29,19,10,9,0,-10,79,48,19,0.00,40.00,0,-999,0,0.00
2013-3-20,29,25,19,28,15,-8,98,72,23,0.00,40.00,0,-999,0,0.00
2013-3-21,28,20,11,28,18,8,98,90,71,0.00,40.00,0,-999,0,0.00
2013-3-22,20,12,5,12,7,0,93,82,62,0.00,40.00,0,-999,0,0.00
2013-3-23,21,8,1,8,1,-3,82,71,54,0.00,40.00,0,-999,0,0.00
2013-3-24,22,8,0,8,0,-6,88,71,38,0.00,40.00,0,-999,0,0.00
2013-3-25,26,12,1,8,1,-5,75,61,40,0.00,40.00,0,-999,0,0.00
2013-3-26,31,23,15,27,18,6,95,80,60,0.00,40.00,0,-999,0,0.00
2013-3-27,37,28,24,28,24,19,96,82,59,0.00,40.00,0,-999,0,0.00
2013-3-28,44,33,25,27,23,19,84,67,46,0.00,40.00,0,-999,0,0.00
2013-3-29,43,34,30,31,27,24,97,79,51,0.00,40.00,0,-999,0,0.00
2013-3-30,43,34,28,31,23,-100,94,68,39,0.00,40.00,0,-999,0,0.00
2013-3-31,47,35,26,24,19,15,74,55,33,0.00,40.00,0,-999,0,0.00
2013-4-1,49,37,28,23,20,18,67,51,32,0.00,40.00,0,-999,0,0.00
2013-4-2,52,38,28,24,19,10,72,48,25,0.00,40.00,0,-999,0,0.00
2013-4-3,47,38,33,29,23,13,76,55,35,0.00,40.00,0,-999,0,0.00
2013-4-4,51,41,35,29,27,24,75,59,37,0.00,40.00,0,-999,0,0.00
2013-4-5,40,33,27,32,29,23,97,85,61,0.00,40.00,0,-999,0,0.00
2013-4-6,36,30,26,30,25,20,97,82,74,0.00,40.00,0,-999,0,0.00
2013-4-7,37,29,25,29,25,21,96,84,66,0.00,40.00,0,-999,0,0.00
2013-4-8,30,25,17,26,22,9,97,87,70,0.00,40.00,0,-999,0,0.00
2013-4-9,29,19,13,11,7,2,82,60,44,0.00,40.00,0,-999,0,0.00
2013-4-10,37,24,12,26,14,7,90,67,37,0.00,40.00,0,-999,0,0.00
2013-4-11,42,32,27,29,24,19,98,73,43,0.00,40.00,0,-999,0,0.00
2013-4-12,41,30,20,26,17,5,94,62,23,0.00,40.00,0,-999,0,0.00
2013-4-13,32,26,15,29,22,11,98,84,53,0.00,40.00,0,-999,0,0.00
2013-4-14,26,17,12,13,9,6,92,71,43,0.00,40.00,0,-999,0,0.00
2013-4-15,26,18,14,20,14,8,92,85,58,0.00,40.00,0,-999,0,0.00
2013-4-16,24,16,12,14,9,3,87,73,58,0.00,40.00,0,-999,0,0.00
2013-4-17,30,16,9,12,6,0,77,63,39,0.00,40.00,0,-999,0,0.00
2013-4-18,34,18,5,13,5,-2,72,57,34,0.00,40.00,0,-999,0,0.00
2013-4-19,23,22,20,15,13,10,78,69,61,0.00,40.00,0,-999,0,0.00
2013-4-20,40,32,27,31,28,24,97,87,66,0.00,40.00,0,-999,0,0.00
2013-4-21,42,30,23,27,23,20,95,77,48,0.00,40.00,0,-999,0,0.00
2013-4-22,31,23,13,23,19,7,96,84,67,0.00,40.00,0,-999,0,0.00
2013-4-23,33,18,4,15,7,0,85,64,31,0.00,40.00,0,-999,0,0.00
2013-4-24,39,27,15,17,11,5,78,52,27,0.00,40.00,0,-999,0,0.00
2013-4-25,49,35,26,16,11,5,54,39,22,0.00,40.00,0,-999,0,0.00
2013-4-26,51,38,28,21,16,13,56,41,25,0.00,40.00,0,-999,0,0.00
2013-4-27,54,43,33,24,21,17,64,43,24,0.00,40.00,0,-999,0,0.00
2013-4-28,48,42,37,30,21,16,74,44,32,0.00,40.00,0,-999,0,0.00
2013-4-29,41,36,31,27,21,14,64,53,42,0.00,40.00,0,-999,0,0.00
2013-4-30,35,28,21,20,15,9,92,61,37,0.00,40.00,0,-999,0,0.00
2013-5-1,38,23,18,23,17,4,95,78,46,0.00,40.00,0,-999,0,0.00
2013-5-2,44,24,15,19,12,6,76,60,33,0.00,40.00,0,-999,0,0.00
2013-5-3,51,37,29,21,16,11,55,43,25,0.00,40.00,0,-999,0,0.00
2013-5-4,41,35,31,31,27,20,95,76,50,0.00,40.00,0,-999,0,0.00
2013-5-5,53,38,32,32,28,26,92,70,38,0.00,40.00,0,-999,0,0.00
2013-5-6,55,41,33,35,29,18,94,65,25,0.00,40.00,0,-999,0,0.00
2013-5-7,57,43,35,33,29,22,75,60,27,0.00,40.00,0,-999,0,0.00
2013-5-8,54,44,37,32,28,23,77,53,33,0.00,40.00,0,-999,0,0.00
2013-5-9,57,45,36,33,27,22,65,51,26,0.00,40.00,0,-999,0,0.00
2013-5-10,58,45,37,34,25,16,68,48,22,0.00,40.00,0,-999,0,0.00
2013-5-11,57,47,37,32,27,22,66,47,26,0.00,40.00,0,-999,0,0.00
2013-5-12,63,52,43,36,30,28,60,46,27,0.00,40.00,0,-999,0,0.00
2013-5-13,67,55,45,34,30,27,57,40,24,0.00,40.00,0,-999,0,0.00
2013-5-14,64,55,48,31,25,19,43,31,21,0.00,40.00,0,-999,0,0.00
2013-5-15,63,52,43,35,28,22,66,41,26,0.00,40.00,0,-999,0,0.00
2013-5-16,52,43,38,40,28,-100,95,78,55,0.00,40.00,0,-999,0,0.00
2013-5-17,43,38,36,40,33,-100,96,92,79,0.00,40.00,0,-999,0,0.00
2013-5-18,38,36,33,37,34,31,98,93,85,0.00,40.00,0,-999,0,0.00
2013-5-19,40,35,32,36,33,31,98,90,78,0.00,40.00,0,-999,0,0.00
2013-5-21,54,49,43,37,32,28,74,52,43,0.00,40.00,0,-999,0,0.00
2013-5-22,61,47,39,36,32,29,74,57,36,0.00,40.00,0,-999,0,0.00
2013-5-23,56,42,33,35,28,19,86,62,29,0.00,40.00,0,-999,0,0.00
2013-5-24,52,40,29,26,17,9,81,42,20,0.00,40.00,0,-999,0,0.00
2013-5-25,61,48,39,31,18,4,53,31,19,0.00,40.00,0,-999,0,0.00
2013-5-26,48,43,39,33,28,25,63,56,50,0.00,40.00,0,-999,0,0.00
2013-10-11,34,31,28,23,21,20,79,67,62,0.00,40.00,0,-999,0,0.00
2013-10-12,34,29,26,31,24,18,96,79,63,0.00,40.00,0,-999,0,0.00
2013-10-13,36,32,30,33,30,28,98,93,85,0.00,40.00,0,-999,0,0.00
2013-10-14,31,28,25,31,26,18,98,92,78,0.00,40.00,0,-999,0,0.00
2013-10-15,32,25,19,26,19,14,84,77,68,0.00,40.00,0,-999,0,0.00
2013-10-16,35,27,20,26,21,18,93,77,61,0.00,40.00,0,-999,0,0.00
2013-10-17,34,28,26,24,21,18,84,75,59,0.00,40.00,0,-999,0,0.00
2013-10-18,36,26,19,20,17,12,85,68,41,0.00,40.00,0,-999,0,0.00
2013-10-19,44,34,26,24,21,17,77,59,44,0.00,40.00,0,-999,0,0.00
2013-10-20,40,35,30,24,21,19,66,56,48,0.00,40.00,0,-999,0,0.00
2013-10-21,47,36,28,26,23,20,73,59,40,0.00,40.00,0,-999,0,0.00
2013-10-22,49,40,31,29,25,18,71,56,39,0.00,40.00,0,-999,0,0.00
2013-10-23,47,40,34,28,25,20,67,56,44,0.00,40.00,0,-999,0,0.00
2013-10-24,46,40,34,26,20,14,57,45,28,0.00,40.00,0,-999,0,0.00
2013-10-25,50,42,36,27,20,12,53,42,29,0.00,40.00,0,-999,0,0.00
2013-10-26,50,44,34,26,21,16,57,41,31,0.00,40.00,0,-999,0,0.00
2013-10-27,50,41,33,23,17,11,59,39,24,0.00,40.00,0,-999,0,0.00
2013-10-28,40,32,26,31,26,13,98,84,32,0.00,40.00,0,-999,0,0.00
2013-10-29,30,26,23,28,25,22,98,96,92,0.00,40.00,0,-999,0,0.00
2013-10-30,28,26,23,26,24,22,97,96,90,0.00,40.00,0,-999,0,0.00
2013-10-31,30,27,24,27,25,23,98,94,87,0.00,40.00,0,-999,0,0.00
2013-11-1,34,28,24,26,23,21,96,83,63,0.00,40.00,0,-999,0,0.00
2013-11-2,38,35,34,24,23,21,67,60,50,0.00,40.00,0,-999,0,0.00
2013-11-3,35,21,15,27,16,9,96,82,63,0.00,40.00,0,-999,0,0.00
2013-11-4,18,13,8,14,10,5,94,87,76,0.00,40.00,0,-999,0,0.00
2013-11-5,19,13,7,15,10,4,94,87,69,0.00,40.00,0,-999,0,0.00
2013-11-6,26,22,16,24,20,15,96,93,87,0.00,40.00,0,-999,0,0.00
2013-11-7,31,28,25,30,27,23,98,95,90,0.00,40.00,0,-999,0,0.00
2013-11-8,33,29,26,29,19,7,94,68,37,0.00,40.00,0,-999,0,0.00
2013-11-9,40,31,24,25,20,14,74,65,46,0.00,40.00,0,-999,0,0.00
2013-11-10,42,36,30,24,22,20,78,59,45,0.00,40.00,0,-999,0,0.00
2013-11-11,45,38,32,25,21,18,61,52,43,0.00,40.00,0,-999,0,0.00
2013-11-12,44,39,31,21,19,17,58,44,34,0.00,40.00,0,-999,0,0.00
2013-11-13,42,36,28,31,24,16,98,65,34,0.00,40.00,0,-999,0,0.00
2013-11-14,34,28,24,27,23,11,94,80,48,0.00,40.00,0,-999,0,0.00
2013-11-15,26,23,19,19,16,11,82,73,66,0.00,40.00,0,-999,0,0.00
2013-11-16,22,19,14,20,17,12,96,93,90,0.00,40.00,0,-999,0,0.00
2013-11-17,22,17,13,19,14,9,92,87,79,0.00,40.00,0,-999,0,0.00
2013-11-18,35,27,21,23,20,17,90,74,56,0.00,40.00,0,-999,0,0.00
2013-11-19,32,29,27,28,26,18,98,91,57,0.00,40.00,0,-999,0,0.00
2013-11-20,31,26,20,29,25,16,98,95,81,0.00,40.00,0,-999,0,0.00
2013-11-21,21,15,9,17,-1,-14,90,52,26,0.00,40.00,0,-999,0,0.00
2013-11-22,25,14,5,9,-1,-9,66,51,31,0.00,40.00,0,-999,0,0.00
2013-11-23,32,25,16,9,2,-5,56,39,25,0.00,40.00,0,-999,0,0.00
2013-11-24,32,24,15,13,4,-5,60,43,26,0.00,40.00,0,-999,0,0.00
2013-11-25,32,26,23,17,14,10,71,58,48,0.00,40.00,0,-999,0,0.00
2013-11-26,35,26,20,19,16,14,79,65,50,0.00,40.00,0,-999,0,0.00
2013-11-27,38,31,26,17,15,13,64,52,38,0.00,40.00,0,-999,0,0.00
2013-11-28,39,31,25,18,15,12,67,52,39,0.00,40.00,0,-999,0,0.00
2013-11-29,34,28,23,20,17,13,75,63,52,0.00,40.00,0,-999,0,0.00
2013-11-30,30,27,26,25,22,19,97,80,67,0.00,40.00,0,-999,0,0.00
2013-12-1,29,26,25,29,25,24,98,95,88,0.00,40.00,0,-999,0,0.00
2013-12-2,30,28,25,28,25,20,95,88,78,0.00,40.00,0,-999,0,0.00
2013-12-3,22,9,2,20,5,-3,93,85,75,0.00,40.00,0,-999,0,0.00
2013-12-4,2,-4,-9,-6,-10,-13,81,74,65,0.00,40.00,0,-999,0,0.00
2013-12-5,-3,-8,-12,-8,-13,-16,83,79,73,0.00,40.00,0,-999,0,0.00
2013-12-6,-2,-6,-11,-7,-11,-16,84,79,72,0.00,40.00,0,-999,0,0.00
2013-12-7,7,1,-5,2,-3,-9,86,81,74,0.00,40.00,0,-999,0,0.00
2013-12-8,0,-4,-11,-3,-10,-17,86,74,65,0.00,40.00,0,-999,0,0.00
2013-12-9,0,-7,-15,-3,-11,-20,87,81,74,0.00,40.00,0,-999,0,0.00
2013-12-10,9,4,-1,5,0,-4,90,85,75,0.00,40.00,0,-999,0,0.00
2013-12-11,14,7,0,10,3,-3,90,86,77,0.00,40.00,0,-999,0,0.00
2013-12-12,27,19,11,14,11,8,88,73,54,0.00,40.00,0,-999,0,0.00
2013-12-13,19,16,12,14,11,7,90,81,69,0.00,40.00,0,-999,0,0.00
2013-12-14,23,18,11,18,15,9,95,89,75,0.00,40.00,0,-999,0,0.00
2013-12-15,28,21,18,19,18,15,96,88,61,0.00,40.00,0,-999,0,0.00
2013-12-17,36,31,29,14,12,9,53,45,33,0.00,40.00,0,-999,0,0.00
2013-12-18,37,33,28,14,12,10,55,42,33,0.00,40.00,0,-999,0,0.00
2013-12-19,29,21,9,24,17,4,96,85,51,0.00,40.00,0,-999,0,0.00
2013-12-20,15,9,6,8,4,1,91,80,70,0.00,40.00,0,-999,0,0.00
2013-12-21,18,12,8,15,10,6,94,90,87,0.00,40.00,0,-999,0,0.00
2013-12-22,19,14,11,13,10,9,92,87,77,0.00,40.00,0,-999,0,0.00
2013-12-23,29,26,22,26,24,21,97,93,87,0.00,40.00,0,-999,0,0.00
2013-12-24,26,18,10,25,14,6,97,85,68,0.00,40.00,0,-999,0,0.00
2013-12-25,17,12,7,10,7,4,92,81,70,0.00,40.00,0,-999,0,0.00
2013-12-26,26,19,12,16,10,6,79,69,56,0.00,40.00,0,-999,0,0.00
2013-12-27,31,23,18,15,12,9,74,63,42,0.00,40.00,0,-999,0,0.00
2013-12-28,31,22,12,17,11,4,90,64,40,0.00,40.00,0,-999,0,0.00
2013-12-29,17,13,7,12,7,2,91,76,64,0.00,40.00,0,-999,0,0.00
2013-12-30,24,18,14,19,13,11,94,82,66,0.00,40.00,0,-999,0,0.00
2013-12-31,28,22,20,24,20,17,96,92,78,0.00,40.00,0,-999,0,0.00
2014-1-1,25,18,11,19,14,9,94,83,67,0.00,40.00,0,-999,0,0.00
2014-1-2,25,17,11,20,14,9,95,89,74,0.00,40.00,0,-999,0,0.00